Greenbrier Valley Airport
KLWB : now visible

Airfield :











YOU CAN JOIN US ON...

 
LOGIN :

Register | Disclaimer

   EN    FR    IT 

 









Legend :    VFR   Marginal VFR   IFR   Intensive IFR   Very Intensive IFR
Visi :
Ceiling :
>= 8 km
>= 3000ft
5 to 8 km
1000 to 3000 ft
1500m to 5 km
500 to 1000 ft
800 to 1500m
200 to 500 ft
< 800m
< 200 ft
Symbols :   Thunderstorms  Fog  Heavy snow  Heavy precipitations  Wind > 20 kt






- Airport Elevation : 2302 ft


KLWB - Greenbrier Valley

CURRENT METAR :
  • 060515Z AUTO 02004KT 10SM SCT100 19/19 A3013 RMK AO2 T01910191

EXPIRED METARs :
  • 060455Z AUTO 01007KT 10SM SCT070 BKN100 BKN120 20/19 A3014 RMK AO2 T01960191 403080170
  • 060435Z AUTO 35005KT 10SM -RA SCT036 BKN070 OVC100 20/20 A3014 RMK AO2 LTG DSNT W T02020198
  • 060415Z AUTO 15004KT 10SM -TSRA SCT036 BKN041 OVC065 20/19 A3015 RMK AO2 LTG DSNT SW THRU NW T01990193
  • 060355Z AUTO 00000KT 10SM -RA SCT032 BKN050 OVC100 20/19 A3015 RMK AO2 LTG DSNT NE AND SW T02000191
  • 060335Z AUTO 05004KT 10SM TS SCT033 BKN041 OVC100 21/19 A3015 RMK AO2 LTG DSNT NE THRU S T02050187
  • 060315Z AUTO 03008KT 10SM SCT038 SCT045 BKN100 21/19 A3014 RMK AO2 LTG DSNT S T02100189
  • 060255Z AUTO 02008KT 10SM SCT035 BKN041 BKN110 21/19 A3013 RMK AO2 LTG DSNT SE AND S T02100190
  • 060235Z AUTO 02007KT 10SM BKN033 BKN044 OVC100 21/19 A3013 RMK AO2 LTG DSNT E T02100191

TAF KLWB
Valid from the 06 at 03:00 until the 07 at 00:00 UTC


060307Z 0603/0624 VRB04KT P6SM VCTS SCT035CB BKN110
TEMPO 0603/0604 2SM TSRA BR OVC025CB
FM060430 00000KT 6SM BR SCT045 BKN200
FM060700 20005KT 2SM BR SCT012
TEMPO 0609/0612 1/4SM FG OVC001
FM061230 20003KT P6SM SCT035
KZDC FIR / North America



MET'MAP, your aeronautical weather chart ! - Copyright ORBIFLY December 2007 - Disclaimer

ORBIFLY MET'MAP TEAM :

Programming & Development : Alexandra Zaïnal
Concept & original design : Baudouin d'Aumeries
Assistance for programming : Marc-Olivier Méhu
Technical & hardware support : Manuel Goepfert

Contact : metmap@orbifly.com




SOURCES & CREDITS :

   NOAA       Earth
Advisory